createdAt,value
2023-05-09T00:02:12.203Z,4.33
2023-05-09T00:04:39.909Z,4.03
2023-05-09T00:07:07.458Z,4.50
2023-05-09T00:09:35.132Z,3.93
2023-05-09T00:12:02.829Z,4.00
2023-05-09T00:14:30.538Z,3.77
2023-05-09T00:16:59.429Z,4.20
2023-05-09T00:19:27.040Z,3.83
2023-05-09T00:21:55.083Z,4.20
2023-05-09T00:24:22.708Z,4.27
2023-05-09T00:26:50.422Z,3.50
2023-05-09T00:29:17.927Z,4.30
2023-05-09T00:31:45.575Z,4.37
2023-05-09T00:34:13.175Z,4.30
2023-05-09T00:36:40.764Z,4.20
2023-05-09T00:39:09.721Z,4.40
2023-05-09T00:41:37.325Z,4.20
2023-05-09T00:44:05.233Z,4.40
2023-05-09T00:46:32.992Z,4.13
2023-05-09T00:49:01.083Z,4.70
2023-05-09T00:51:31.872Z,3.70
2023-05-09T00:54:02.327Z,4.43
2023-05-09T00:56:29.839Z,4.27
2023-05-09T00:58:57.460Z,4.10
2023-05-09T01:01:25.233Z,4.43
2023-05-09T01:03:54.048Z,4.50
2023-05-09T01:06:41.212Z,4.93
2023-05-09T01:09:39.261Z,4.63
2023-05-09T01:12:28.064Z,4.30
2023-05-09T01:15:33.621Z,4.23
2023-05-09T01:18:20.976Z,4.40
2023-05-09T01:21:21.907Z,4.50
2023-05-09T01:24:29.146Z,4.30
2023-05-09T01:27:45.177Z,4.50
2023-05-09T01:30:14.191Z,4.53
2023-05-09T01:32:47.744Z,4.23
2023-05-09T01:35:17.332Z,4.40
2023-05-09T01:37:50.676Z,4.80
2023-05-09T01:40:21.594Z,4.40
2023-05-09T01:43:02.594Z,4.60
2023-05-09T01:45:32.113Z,4.57
2023-05-09T01:47:59.937Z,4.80
2023-05-09T01:50:30.378Z,4.80
2023-05-09T01:53:02.387Z,4.33
2023-05-09T01:55:36.228Z,4.57
2023-05-09T01:58:06.330Z,4.70
2023-05-09T02:00:35.299Z,5.37
2023-05-09T02:03:04.964Z,4.73
2023-05-09T02:05:34.363Z,5.03
2023-05-09T02:08:02.494Z,4.40
2023-05-09T02:10:34.091Z,4.70
2023-05-09T02:13:01.813Z,5.63
2023-05-09T02:15:30.616Z,6.47
2023-05-09T02:17:58.383Z,5.37
2023-05-09T02:20:25.919Z,5.10
2023-05-09T02:22:53.613Z,5.00
2023-05-09T02:25:21.236Z,4.73
2023-05-09T02:27:49.075Z,4.90
2023-05-09T02:30:25.485Z,4.70
2023-05-09T02:33:00.063Z,5.00
2023-05-09T02:35:29.731Z,4.70
2023-05-09T02:38:00.894Z,5.00
2023-05-09T02:40:32.042Z,5.80
2023-05-09T02:42:59.576Z,6.33
2023-05-09T02:45:28.078Z,5.50
2023-05-09T02:47:56.959Z,6.00
2023-05-09T02:50:25.148Z,6.47
2023-05-09T02:52:52.790Z,6.13
2023-05-09T02:55:20.354Z,5.90
2023-05-09T02:57:49.236Z,6.07
2023-05-09T03:00:21.599Z,6.10
2023-05-09T03:02:49.904Z,6.10
2023-05-09T03:05:18.381Z,5.83
2023-05-09T03:07:51.102Z,5.63
2023-05-09T03:10:18.755Z,6.20
2023-05-09T03:12:46.381Z,5.60
2023-05-09T03:15:14.271Z,5.10
2023-05-09T03:17:44.056Z,6.23
2023-05-09T03:20:15.881Z,6.83
2023-05-09T03:22:43.510Z,6.93
2023-05-09T03:25:13.418Z,5.73
2023-05-09T03:27:41.379Z,5.63
2023-05-09T03:30:16.119Z,5.10
2023-05-09T03:32:45.726Z,4.97
2023-05-09T03:35:13.523Z,5.17
2023-05-09T03:37:41.395Z,4.90
2023-05-09T03:40:10.479Z,4.43
2023-05-09T03:42:45.926Z,5.27
2023-05-09T03:45:13.808Z,4.60
2023-05-09T03:47:42.094Z,5.33
2023-05-09T03:50:10.919Z,4.57
2023-05-09T03:52:38.430Z,4.73
2023-05-09T03:55:07.723Z,4.67
2023-05-09T03:57:37.286Z,4.60
2023-05-09T04:00:06.817Z,4.33
2023-05-09T04:02:42.360Z,4.30
2023-05-09T04:05:18.273Z,4.20
2023-05-09T04:07:46.341Z,4.37
2023-05-09T04:10:15.050Z,4.30
2023-05-09T04:12:42.926Z,4.00
2023-05-09T04:15:12.634Z,4.40
2023-05-09T04:17:41.434Z,4.07
2023-05-09T04:20:10.767Z,4.10
2023-05-09T04:22:38.382Z,4.23
2023-05-09T04:25:07.353Z,4.70
2023-05-09T04:27:35.650Z,4.10
2023-05-09T04:30:03.860Z,4.47
2023-05-09T04:32:32.082Z,4.47
2023-05-09T04:34:59.902Z,4.80
2023-05-09T04:37:32.848Z,4.47
2023-05-09T04:40:04.606Z,4.47
2023-05-09T04:42:40.607Z,4.47
2023-05-09T04:45:09.427Z,4.47
2023-05-09T04:47:36.959Z,4.50
2023-05-09T04:50:07.523Z,4.73
2023-05-09T04:52:35.089Z,4.43
2023-05-09T04:55:02.918Z,4.67
2023-05-09T04:57:35.368Z,4.13
2023-05-09T05:00:11.206Z,4.93
2023-05-09T05:02:39.340Z,4.13
2023-05-09T05:05:11.960Z,4.80
2023-05-09T05:07:42.651Z,4.43
2023-05-09T05:10:13.621Z,4.17
2023-05-09T05:12:44.333Z,4.00
2023-05-09T05:15:14.491Z,4.80
2023-05-09T05:17:45.333Z,4.63
2023-05-09T05:20:17.466Z,4.40
2023-05-09T05:22:46.857Z,4.30
2023-05-09T05:25:15.235Z,4.97
2023-05-09T05:27:45.035Z,5.10
2023-05-09T05:30:16.338Z,4.93
2023-05-09T05:32:44.524Z,4.53
2023-05-09T05:35:14.004Z,5.03
2023-05-09T05:37:42.663Z,4.47
2023-05-09T05:40:11.384Z,4.70
2023-05-09T05:42:42.215Z,5.10
2023-05-09T05:45:12.396Z,5.00
2023-05-09T05:47:43.232Z,4.70
2023-05-09T05:50:12.345Z,5.17
2023-05-09T05:52:41.664Z,5.07
2023-05-09T05:55:13.012Z,5.37
2023-05-09T05:57:41.509Z,5.07
2023-05-09T06:00:14.704Z,5.07
2023-05-09T06:02:50.886Z,5.23
2023-05-09T06:05:25.304Z,5.20
2023-05-09T06:07:53.220Z,4.80
2023-05-09T06:10:21.349Z,5.67
2023-05-09T06:12:49.019Z,6.07
2023-05-09T06:15:16.985Z,6.27
2023-05-09T06:17:47.673Z,6.57
2023-05-09T06:20:15.366Z,7.13
2023-05-09T06:22:42.853Z,6.27
2023-05-09T06:25:10.787Z,6.97
2023-05-09T06:27:39.424Z,7.07
2023-05-09T06:30:23.976Z,6.37
2023-05-09T06:32:54.138Z,7.40
2023-05-09T06:35:22.042Z,6.37
2023-05-09T06:37:49.748Z,6.20
2023-05-09T06:40:18.436Z,6.23
2023-05-09T06:42:46.567Z,6.50
2023-05-09T06:45:15.476Z,6.47
2023-05-09T06:47:43.368Z,6.00
2023-05-09T06:50:12.084Z,6.30
2023-05-09T06:52:39.649Z,5.83
2023-05-09T06:55:08.445Z,5.60
2023-05-09T06:57:36.112Z,5.37
2023-05-09T07:00:05.235Z,5.20
2023-05-09T07:02:33.037Z,5.53
2023-05-09T07:05:00.809Z,5.53
2023-05-09T07:07:28.439Z,5.37
2023-05-09T07:10:07.358Z,6.03
2023-05-09T07:12:38.598Z,6.13
2023-05-09T07:15:06.982Z,5.80
2023-05-09T07:17:34.508Z,5.70
2023-05-09T07:20:04.071Z,5.40
2023-05-09T07:22:33.055Z,5.40
2023-05-09T07:25:01.936Z,6.80
2023-05-09T07:27:29.571Z,6.57
2023-05-09T07:29:57.199Z,6.43
2023-05-09T07:32:24.902Z,6.07
2023-05-09T07:34:52.443Z,7.23
2023-05-09T07:37:20.315Z,6.90
2023-05-09T07:39:47.875Z,6.60
2023-05-09T07:42:16.298Z,6.67
2023-05-09T07:44:44.003Z,6.77
2023-05-09T07:47:11.646Z,6.47
2023-05-09T07:49:40.704Z,6.30
2023-05-09T07:52:08.330Z,6.70
2023-05-09T07:54:36.031Z,6.67
2023-05-09T07:57:03.549Z,7.67
2023-05-09T07:59:31.205Z,7.07
2023-05-09T08:01:58.877Z,6.57
2023-05-09T08:04:26.799Z,7.30
2023-05-09T08:06:54.601Z,6.67
2023-05-09T08:09:22.219Z,7.07
2023-05-09T08:11:49.832Z,7.43
2023-05-09T08:14:17.470Z,8.17
2023-05-09T08:16:45.012Z,8.90
2023-05-09T08:19:12.574Z,8.10
2023-05-09T08:21:40.276Z,8.07
2023-05-09T08:24:09.713Z,8.13
2023-05-09T08:26:37.288Z,7.47
2023-05-09T08:29:04.905Z,7.60
2023-05-09T08:31:32.511Z,6.93
2023-05-09T08:34:00.167Z,7.43
2023-05-09T08:36:27.885Z,7.73
2023-05-09T08:38:57.148Z,7.30
2023-05-09T08:41:31.105Z,7.00
2023-05-09T08:43:58.901Z,7.90
2023-05-09T08:46:38.755Z,8.10
2023-05-09T08:49:10.056Z,8.33
2023-05-09T08:51:38.670Z,7.23
2023-05-09T08:54:06.688Z,7.43
2023-05-09T08:56:36.101Z,8.23
2023-05-09T08:59:05.944Z,8.77
2023-05-09T09:01:38.145Z,8.50
2023-05-09T09:04:09.781Z,8.10
2023-05-09T09:06:39.063Z,8.43
2023-05-09T09:09:11.548Z,8.57
2023-05-09T09:11:41.714Z,8.37
2023-05-09T09:14:20.271Z,8.77
2023-05-09T09:16:49.862Z,7.17
2023-05-09T09:19:18.844Z,7.67
2023-05-09T09:21:47.867Z,6.83
2023-05-09T09:24:22.037Z,6.30
2023-05-09T09:26:52.223Z,5.97
2023-05-09T09:29:21.485Z,6.10
2023-05-09T09:31:55.153Z,6.27
2023-05-09T09:34:24.348Z,6.13
2023-05-09T09:36:52.177Z,6.30
2023-05-09T09:39:21.853Z,6.20
2023-05-09T09:41:49.880Z,6.50
2023-05-09T09:44:20.850Z,7.27
2023-05-09T09:46:51.170Z,6.67
2023-05-09T09:49:26.409Z,6.80
2023-05-09T09:51:59.144Z,7.30
2023-05-09T09:54:27.894Z,7.40
2023-05-09T09:56:56.799Z,7.07
2023-05-09T09:59:26.990Z,5.57
2023-05-09T10:02:07.933Z,5.30
2023-05-09T10:04:39.110Z,6.43
2023-05-09T10:07:13.838Z,5.67
2023-05-09T10:09:44.111Z,5.73
2023-05-09T10:12:14.797Z,5.90
2023-05-09T10:14:43.359Z,5.67
2023-05-09T10:17:15.461Z,5.63
2023-05-09T10:19:48.382Z,5.97
2023-05-09T10:22:18.061Z,5.53
2023-05-09T10:24:58.192Z,5.13
2023-05-09T10:27:29.599Z,5.20
2023-05-09T10:30:07.875Z,5.50
2023-05-09T10:33:13.448Z,6.03
2023-05-09T10:35:45.992Z,6.27
2023-05-09T10:38:14.464Z,6.20
2023-05-09T10:40:42.704Z,6.13
2023-05-09T10:43:10.291Z,6.40
2023-05-09T10:45:38.654Z,6.30
2023-05-09T10:48:09.321Z,7.07
2023-05-09T10:50:42.685Z,7.03
2023-05-09T10:53:14.285Z,6.83
2023-05-09T10:55:47.908Z,6.73
2023-05-09T10:58:28.443Z,6.97
2023-05-09T11:01:01.504Z,6.03
2023-05-09T11:03:53.928Z,6.80
2023-05-09T11:06:51.529Z,6.40
2023-05-09T11:09:34.083Z,6.83
2023-05-09T11:12:15.589Z,6.33
2023-05-09T11:14:46.232Z,6.10
2023-05-09T11:17:23.094Z,6.40
2023-05-09T11:19:50.600Z,6.60
2023-05-09T11:22:26.326Z,6.37
2023-05-09T11:25:05.316Z,6.93
2023-05-09T11:27:45.304Z,6.77
2023-05-09T11:30:19.280Z,6.60
2023-05-09T11:32:55.248Z,6.27
2023-05-09T11:35:26.867Z,6.10
2023-05-09T11:38:07.427Z,5.60
2023-05-09T11:40:35.958Z,5.33
2023-05-09T11:43:03.769Z,5.67
2023-05-09T11:45:33.536Z,4.70
2023-05-09T11:48:02.200Z,4.70
2023-05-09T11:50:30.349Z,4.33
2023-05-09T11:52:58.549Z,3.93
2023-05-09T11:55:30.055Z,4.10
2023-05-09T11:57:58.762Z,4.10
2023-05-09T12:00:27.399Z,4.10
2023-05-09T12:02:55.126Z,4.17
2023-05-09T12:05:23.997Z,4.00
2023-05-09T12:07:52.947Z,4.57
2023-05-09T12:10:23.324Z,3.70
2023-05-09T12:12:55.609Z,3.43
2023-05-09T12:15:23.825Z,3.73
2023-05-09T12:18:08.946Z,3.70
2023-05-09T12:20:50.450Z,3.30
2023-05-09T12:23:19.221Z,3.80
2023-05-09T12:25:54.921Z,3.80
2023-05-09T12:28:27.023Z,3.50
2023-05-09T12:30:55.483Z,3.50
2023-05-09T12:33:26.342Z,3.77
2023-05-09T12:36:11.456Z,3.23
2023-05-09T12:38:40.052Z,3.57
2023-05-09T12:41:33.363Z,4.67
2023-05-09T12:43:59.828Z,3.70
2023-05-09T12:46:27.549Z,3.67
2023-05-09T12:48:55.253Z,3.73
2023-05-09T12:51:23.624Z,3.53
2023-05-09T12:53:51.452Z,3.80
2023-05-09T12:56:23.575Z,3.30
2023-05-09T12:58:53.635Z,3.70
2023-05-09T13:01:27.937Z,3.40
2023-05-09T13:04:04.483Z,3.17
2023-05-09T13:06:33.084Z,2.70
2023-05-09T13:09:06.425Z,2.70
2023-05-09T13:11:34.297Z,2.63
2023-05-09T13:14:04.245Z,2.80
2023-05-09T13:16:32.051Z,2.60
2023-05-09T13:19:01.608Z,2.60
2023-05-09T13:21:29.362Z,3.17
2023-05-09T13:23:56.899Z,3.17
2023-05-09T13:26:24.613Z,2.70
2023-05-09T13:28:52.343Z,2.70
2023-05-09T13:31:20.757Z,2.80
2023-05-09T13:33:51.429Z,2.60
2023-05-09T13:36:19.618Z,2.47
2023-05-09T13:38:47.318Z,3.20
2023-05-09T13:41:20.474Z,3.03
2023-05-09T13:43:48.245Z,2.90
2023-05-09T13:46:15.987Z,3.13
2023-05-09T13:48:44.475Z,2.80
2023-05-09T13:51:12.109Z,2.63
2023-05-09T13:53:39.912Z,3.10
2023-05-09T13:56:09.705Z,2.60
2023-05-09T13:58:37.400Z,3.50
2023-05-09T14:01:05.047Z,2.63
2023-05-09T14:03:32.759Z,2.57
2023-05-09T14:06:00.506Z,3.00
2023-05-09T14:08:28.090Z,3.20
2023-05-09T14:10:55.953Z,3.30
2023-05-09T14:13:23.661Z,3.13
2023-05-09T14:15:51.319Z,3.00
2023-05-09T14:18:20.929Z,3.87
2023-05-09T14:20:49.263Z,3.97
2023-05-09T14:23:17.094Z,3.00
2023-05-09T14:25:44.932Z,3.03
2023-05-09T14:28:14.711Z,3.13
2023-05-09T14:30:42.685Z,2.80
2023-05-09T14:33:10.363Z,2.67
2023-05-09T14:35:41.051Z,4.07
2023-05-09T14:38:09.263Z,2.57
2023-05-09T14:40:37.178Z,2.47
2023-05-09T14:43:05.981Z,2.50
2023-05-09T14:45:34.206Z,3.17
2023-05-09T14:48:05.810Z,2.63
2023-05-09T14:50:35.889Z,3.20
2023-05-09T14:53:05.160Z,3.53
2023-05-09T14:55:35.916Z,3.70
2023-05-09T14:58:04.091Z,3.73
2023-05-09T15:00:34.200Z,3.50
2023-05-09T15:03:04.636Z,3.73
2023-05-09T15:05:32.300Z,3.63
2023-05-09T15:08:02.045Z,3.90
2023-05-09T15:10:30.288Z,4.00
2023-05-09T15:12:58.771Z,3.53
2023-05-09T15:15:27.022Z,4.07
2023-05-09T15:17:55.051Z,4.57
2023-05-09T15:20:23.871Z,4.20
2023-05-09T15:22:52.636Z,4.20
2023-05-09T15:25:21.969Z,4.23
2023-05-09T15:27:50.662Z,4.10
2023-05-09T15:30:18.669Z,3.63
2023-05-09T15:32:47.123Z,4.50
2023-05-09T15:35:15.875Z,4.80
2023-05-09T15:37:43.389Z,3.87
2023-05-09T15:40:11.523Z,3.70
2023-05-09T15:42:39.860Z,4.20
2023-05-09T15:45:10.086Z,4.50
2023-05-09T15:47:37.730Z,3.73
2023-05-09T15:50:05.877Z,3.80
2023-05-09T15:52:33.753Z,4.40
2023-05-09T15:55:01.582Z,3.87
2023-05-09T15:57:29.474Z,3.90
2023-05-09T15:59:57.230Z,4.37
2023-05-09T16:02:24.993Z,4.67
2023-05-09T16:04:52.707Z,4.07
2023-05-09T16:07:20.733Z,4.10
2023-05-09T16:09:48.838Z,4.23
2023-05-09T16:12:16.505Z,3.63
2023-05-09T16:14:44.353Z,3.50
2023-05-09T16:17:15.445Z,3.63
2023-05-09T16:19:45.627Z,3.80
2023-05-09T16:22:13.343Z,3.80
2023-05-09T16:24:40.892Z,4.03
2023-05-09T16:27:08.615Z,4.00
2023-05-09T16:29:36.548Z,3.50
2023-05-09T16:32:04.281Z,3.40
2023-05-09T16:34:31.990Z,3.67
2023-05-09T16:36:59.653Z,3.50
2023-05-09T16:39:28.066Z,3.40
2023-05-09T16:41:57.177Z,3.50
2023-05-09T16:44:26.600Z,3.80
2023-05-09T16:46:54.330Z,3.20
2023-05-09T16:49:22.100Z,4.20
2023-05-09T16:51:49.756Z,3.63
2023-05-09T16:54:17.394Z,3.63
2023-05-09T16:56:44.878Z,3.53
2023-05-09T16:59:12.440Z,3.47
2023-05-09T17:01:42.088Z,3.60
2023-05-09T17:04:10.218Z,3.47
2023-05-09T17:06:38.036Z,3.70
2023-05-09T17:09:06.148Z,4.17
2023-05-09T17:11:35.091Z,3.40
2023-05-09T17:14:04.168Z,3.73
2023-05-09T17:16:37.245Z,4.03
2023-05-09T17:19:05.756Z,3.50
2023-05-09T17:21:34.516Z,4.30
2023-05-09T17:24:02.238Z,4.73
2023-05-09T17:26:29.938Z,5.23
2023-05-09T17:28:58.521Z,5.57
2023-05-09T17:31:26.855Z,5.17
2023-05-09T17:33:57.461Z,4.13
2023-05-09T17:36:26.105Z,4.20
2023-05-09T17:38:53.757Z,4.23
2023-05-09T17:41:22.055Z,4.43
2023-05-09T17:43:52.271Z,4.90
2023-05-09T17:46:23.820Z,4.03
2023-05-09T17:48:51.818Z,4.50
2023-05-09T17:51:19.478Z,3.67
2023-05-09T17:53:47.074Z,4.23
2023-05-09T17:56:17.432Z,4.27
2023-05-09T17:58:45.539Z,4.60
2023-05-09T18:01:15.729Z,3.90
2023-05-09T18:03:43.898Z,4.20
2023-05-09T18:06:12.355Z,4.00
2023-05-09T18:08:42.166Z,4.10
2023-05-09T18:11:11.256Z,4.33
2023-05-09T18:13:38.973Z,4.03
2023-05-09T18:16:08.752Z,3.97
2023-05-09T18:18:36.588Z,4.30
2023-05-09T18:21:08.102Z,4.00
2023-05-09T18:23:35.861Z,3.63
2023-05-09T18:26:04.798Z,4.13
2023-05-09T18:28:39.685Z,3.70
2023-05-09T18:31:13.235Z,4.33
2023-05-09T18:33:43.469Z,4.50
2023-05-09T18:36:12.926Z,4.30
2023-05-09T18:38:43.692Z,4.90
2023-05-09T18:41:13.489Z,4.27
2023-05-09T18:43:46.276Z,4.27
2023-05-09T18:46:36.535Z,4.83
2023-05-09T18:49:06.375Z,5.27
2023-05-09T18:51:35.990Z,5.97
2023-05-09T18:54:25.668Z,8.60
2023-05-09T18:56:56.933Z,7.80
2023-05-09T18:59:26.829Z,6.10
2023-05-09T19:01:57.806Z,5.93
2023-05-09T19:04:26.126Z,5.87
2023-05-09T19:06:54.064Z,17.03
2023-05-09T19:09:23.119Z,16.87
2023-05-09T19:11:53.101Z,34.97
2023-05-09T19:14:20.803Z,47.07
2023-05-09T19:16:48.688Z,28.90
2023-05-09T19:19:24.782Z,8.50
2023-05-09T19:22:00.056Z,5.37
2023-05-09T19:24:28.250Z,4.50
2023-05-09T19:26:57.498Z,4.90
2023-05-09T19:29:25.226Z,4.93
2023-05-09T19:31:53.008Z,3.73
2023-05-09T19:34:22.118Z,4.10
2023-05-09T19:36:49.922Z,4.03
2023-05-09T19:39:18.062Z,4.57
2023-05-09T19:41:48.823Z,4.33
2023-05-09T19:44:19.054Z,4.27
2023-05-09T19:46:46.804Z,3.60
2023-05-09T19:49:17.821Z,3.63
2023-05-09T19:51:51.857Z,3.23
2023-05-09T19:54:23.804Z,3.17
2023-05-09T19:56:51.797Z,3.10
2023-05-09T19:59:21.151Z,2.73
2023-05-09T20:01:48.786Z,3.40
2023-05-09T20:04:17.127Z,2.73
2023-05-09T20:06:46.153Z,2.87
2023-05-09T20:09:17.878Z,2.67
2023-05-09T20:11:46.569Z,2.90
2023-05-09T20:14:15.075Z,2.87
2023-05-09T20:16:44.131Z,2.60
2023-05-09T20:19:15.757Z,2.47
2023-05-09T20:21:44.421Z,2.80
2023-05-09T20:24:12.087Z,2.57
2023-05-09T20:26:42.703Z,2.80
2023-05-09T20:29:10.337Z,3.10
2023-05-09T20:31:38.622Z,2.80
2023-05-09T20:34:10.586Z,3.30
2023-05-09T20:36:38.367Z,2.97
2023-05-09T20:39:06.487Z,2.90
2023-05-09T20:41:34.927Z,3.20
2023-05-09T20:44:04.953Z,2.87
2023-05-09T20:46:32.913Z,3.17
2023-05-09T20:49:00.799Z,3.47
2023-05-09T20:51:28.434Z,2.70
2023-05-09T20:54:00.700Z,3.03
2023-05-09T20:56:29.056Z,3.10
2023-05-09T20:59:01.123Z,2.93
2023-05-09T21:01:37.180Z,2.97
2023-05-09T21:04:05.981Z,3.10
2023-05-09T21:06:34.045Z,3.17
2023-05-09T21:09:06.480Z,3.10
2023-05-09T21:11:37.128Z,3.00
2023-05-09T21:14:05.317Z,3.20
2023-05-09T21:16:34.149Z,3.50
2023-05-09T21:19:05.221Z,2.90
2023-05-09T21:21:37.619Z,3.20
2023-05-09T21:24:09.217Z,3.40
2023-05-09T21:26:37.087Z,2.70
2023-05-09T21:29:05.452Z,3.20
2023-05-09T21:31:36.452Z,3.47
2023-05-09T21:34:12.257Z,3.23
2023-05-09T21:36:41.159Z,3.30
2023-05-09T21:39:10.468Z,3.37
2023-05-09T21:41:43.014Z,3.23
2023-05-09T21:44:12.181Z,3.33
2023-05-09T21:46:41.509Z,3.47
2023-05-09T21:49:09.375Z,3.20
2023-05-09T21:51:38.078Z,3.60
2023-05-09T21:54:06.400Z,3.20
2023-05-09T21:56:34.115Z,3.60
2023-05-09T21:59:01.610Z,3.50
2023-05-09T22:01:29.487Z,3.20
2023-05-09T22:03:57.168Z,3.33
2023-05-09T22:06:24.872Z,3.30
2023-05-09T22:08:52.701Z,3.50
2023-05-09T22:11:20.440Z,3.37
2023-05-09T22:13:48.122Z,3.10
2023-05-09T22:16:16.184Z,3.87
2023-05-09T22:18:43.845Z,3.33
2023-05-09T22:21:11.427Z,3.43
2023-05-09T22:23:39.157Z,3.33
2023-05-09T22:26:07.194Z,3.20
2023-05-09T22:28:34.864Z,3.40
2023-05-09T22:31:02.680Z,3.63
2023-05-09T22:33:30.270Z,2.90
2023-05-09T22:35:58.621Z,3.07
2023-05-09T22:38:26.579Z,2.70
2023-05-09T22:40:54.290Z,2.93
2023-05-09T22:43:22.514Z,2.67
2023-05-09T22:45:50.375Z,2.70
2023-05-09T22:48:18.050Z,3.20
2023-05-09T22:50:45.645Z,2.50
2023-05-09T22:53:13.299Z,2.40
2023-05-09T22:55:41.444Z,2.60
2023-05-09T22:58:09.649Z,2.40
2023-05-09T23:00:37.511Z,2.30
2023-05-09T23:03:05.277Z,2.23
2023-05-09T23:05:32.898Z,2.60
2023-05-09T23:08:00.454Z,3.33
2023-05-09T23:10:28.132Z,2.70
2023-05-09T23:12:55.841Z,2.70
2023-05-09T23:15:23.583Z,2.60
2023-05-09T23:17:51.323Z,2.37
2023-05-09T23:20:19.535Z,3.10
2023-05-09T23:22:47.278Z,2.77
2023-05-09T23:25:15.130Z,4.23
2023-05-09T23:27:44.631Z,2.87
2023-05-09T23:30:12.394Z,3.03
2023-05-09T23:32:40.088Z,2.70
2023-05-09T23:35:08.217Z,2.70
2023-05-09T23:37:36.140Z,3.07
2023-05-09T23:40:05.866Z,2.87
2023-05-09T23:42:33.540Z,3.17
2023-05-09T23:45:01.198Z,3.30
2023-05-09T23:47:28.742Z,2.80
2023-05-09T23:49:56.399Z,2.63
2023-05-09T23:52:24.045Z,2.87
2023-05-09T23:54:51.709Z,3.13
2023-05-09T23:57:19.297Z,3.10
2023-05-09T23:59:47.336Z,2.67
